Overview Statistics Trail Chart Weather Telemetry Raw packets
 

This is the latest recevied weather packets stored in our database for station/object STV2-WX. If no packets are shown the sender has not sent any weather packets the latest 10 day(s).

<< 4 5 6 7 8 9 10 >>
Time Temp. Humidity Pressure Rain* Wind** Luminosity Snow
1788153429 15.56° C 68% 1018.2 hPa - - - -
1788149828 13.89° C 75% 1018.1 hPa - - - -
1788146229 12.78° C 82% 1018.2 hPa - - - -
1788142629 13.33° C 83% 1018 hPa - - - -
1788139029 13.89° C 80% 1018.2 hPa - - - -
1788135429 14.44° C 78% 1018.1 hPa - - - -
1788131828 15° C 73% 1018 hPa - - - -
1788128229 15° C 67% 1017.7 hPa - - - -
1788124629 15.56° C 58% 1017.8 hPa - - - -
1788121028 16.11° C 54% 1018.1 hPa - - - -
1788117429 16.67° C 55% 1018.3 hPa - - - -
1788113829 17.22° C 62% 1018.2 hPa - - - -
1788110229 17.22° C 63% 1018.1 hPa - - - -
1788106629 17.78° C 58% 1017.4 hPa - - - -
1788103029 20° C 42% 1016.6 hPa - - - -
1788099428 21.11° C 38% 1016.4 hPa - - - -
1788095830 22.22° C 38% 1016.3 hPa - - - -
1788092228 22.78° C 37% 1016.5 hPa - - - -
1788088629 22.22° C 37% 1016.2 hPa - - - -
1788085029 22.22° C 38% 1016.3 hPa - - - -
1788081429 21.11° C 42% 1016.8 hPa - - - -
1788077829 20.56° C 44% 1017.3 hPa - - - -
1788074229 18.89° C 45% 1017.6 hPa - - - -
1788070629 17.78° C 43% 1017.7 hPa - - - -
1788067030 16.11° C 42% 1017.2 hPa - - - -

* Rain since midnight (hover to see other rain measurements)
** Current wind speed in m/s (hover to see current wind gust speed)